Clark Fork, Idaho
Current Conditions -  °F | °C
As of 10:15 PM on Sunday 21 Dec 2014 (Local Time) from KSZT Reporting Station
Clear Clear  
Wind Chill: 35°   Ceiling: Unl
Heat Index: 41°   Visibility: 10mi
Dew Point: 34°   Wind: 9mph
Humidity: 76%   Direction: 230°SW
Pressure: 29.88"   Gusts: 18mph
Location:  48.15°N, 116.18°W
Report Text: KSZT 220615Z AUTO 23008G16KT 10SM CLR 05/01 A2988 RMK AO2
Loading
Personal Weather Stations






























Interactive Weather Map New forecast layout! Learn more

10-Day Weather Forecast

Advertisements
Track Severe Weather on mobile